Kornesty, Republic of Moldova

9:34 AM EEST on October 02, 2014 (GMT +0300)
Iasi | Change Station
CLOSE
Current Station
Airport
Location: Iasi,
Elevation: 338 ft
Nearby Weather Stations

Elev 338 ft 47.16 °N, 27.63 °E | Updated 4 minutes ago

Clear
Clear
54 °F
Feels Like 54 °F
N
14
Wind Variable Wind from East

Today
High -- | Low -- °F
--% Chance of Precip.
Yesterday
High -- | Low -- °F
Precip. -- in
7:07 AM 6:45 PM
First Quarter, 55% visible
Pressure 30.42 in
Visibility -9999.0 miles
Clouds
Dew Point 37 °F
Humidity 54%
Rainfall 0.00 in
Snow Depth Not available.
UV Not available.
Pollen Not available.
Air Quality Not available.
Flu Activity Not available.
METAR LRIA 020630Z 10012KT CAVOK 12/03 Q1030

More Conditions Fewer Conditions

Pressure 30.42 in
Visibility -9999.0 miles
Clouds
Dew Point 37 °F
Humidity 54%
Rainfall 0.00 in
Snow Depth Not available.
UV Not available.
Pollen Not available.
Air Quality Not available.
Flu Activity Not available.
METAR LRIA 020630Z 10012KT CAVOK 12/03 Q1030

More Conditions Fewer Conditions

10-Day Weather Forecast

Almanac

Astronomy

Oct. 02, 2014 Rise Set
Actual Time 7:07 AM EEST 6:45 PM EEST
Civil Twilight 6:37 AM EEST 7:16 PM EEST
Nautical Twilight 6:01 AM EEST 7:51 PM EEST
Astronomical Twilight 5:25 AM EEST 8:27 PM EEST
Moon 2:57 PM EEST No Moon Set
Length of Visible Light 12h 39m
Length of Day
11h 38m
Tomorrow will be 3m 22s shorter.
First Quarter, 55% of the Moon is Illuminated
Today
First Quarter
Oct 8
Full
Oct 15
Last Quarter
Oct 23
New
Oct 30
First Quarter

Yesterday's Extremes

Country Highs Country Lows

Community

WunderPhotos

Upload Photos

1,758,198 photos uploaded!

WunderBlogs® & News

Nearby

Snow Depth

Not available.

Earthquake Activity

City Distance Mag. Time & Date
No recent earthquake activity has been reported nearby.
Minimum magnitude displayed is 2.5.

Coastal Water Temperatures

Place Temperature
No Stations Reporting

Nearby Weather Stations